Detall de PIREP

Printer-friendly versionPDF version

[2014/07/22 17:23:00]
Flight IATA:CT1004
Pilot Number:012
Company ICAO:CAT
Aircraft Type:A320/E
PAX:150
Departing Airport: LIEA
Destination Airport: LFBO
Alternate Airport:LFML
Online: VATSIM
Route:GINOX UM732 NISEK UT175 DIVKO UM731 FJR
Flight Level:F310
No Slew and time accel
No pause
Crash detect
Detect pilot in Cockpit between each 30 and 45 minutes
17:23 Zero fuel Weight: 120676 Lbs, Fuel Weight: 17389 Lbs
17:23 VATSIM:LIEA 221650Z 28009KT 260V330 9999 BKN020 23/19 Q1011
17:23 VATSIM:LFBO 221700Z AUTO 33008KT 280V360 9999 FEW047 26/15 Q1017
17:23 SUMMER CHARTER
17:30 Parking Brakes off
17:35 Take-off
17:35 Take off Weight: 137213 Lbs
17:35 Wind: 283º @ 008 Knots Heading: 208º
17:35 POS N40º 37´ 38´´ E008º 17´ 16´´
17:35 Gear Up: 171 Knots
17:35 Flaps:3 at 171 Knots
17:35 Flaps:2 at 179 Knots
17:35 Flaps:0 at 195 Knots
17:48 TOC
17:48 Fuel Weight: 13015 Lb
17:50 Wind:311º@038 Knots Heading: 312º Ground Speed: 429 Knots Altitude 30879 ft
18:05 Wind:325º@029 Knots Heading: 312º Ground Speed: 438 Knots Altitude 30866 ft
18:16 TOD
18:16 Fuel Weight: 10207 Lb
18:20 Wind:338º@025 Knots Heading: 269º Ground Speed: 371 Knots Altitude 22496 ft
18:35 Wind:039º@010 Knots Heading: 268º Ground Speed: 241 Knots Altitude 3986 ft
18:38 Flaps:1 at 197 Knots
18:38 Flaps:3 at 194 Knots
18:38 Gear Down: 190 Knots
18:38 Flaps:4 at 173 Knots
18:40 Flaps:5 at 159 Knots
18:42 TouchDown:Rate -226 ft/min Speed: 140 Knots
18:42 VATSIM:LFBO 221830Z AUTO 32010KT 9999 NSC 26/15 Q1017
18:42 Land
18:42 Wind:310º@010 Knots
18:42 Heading: 322º
18:42 Flight Duration: 01:07
18:42 Landing Weight: 128886 Lbs
18:42 POS N43º 37´ 27´´ E001º 22´ 16´´
18:45 Parking brakes on
18:45 Block to Block Duration: 01:15
18:45 Final Fuel: 7962 Lbls
18:45 Spent Fuel: 9426 Lbls
18:45 Flight Length: 405 NM
18:45 TOD Land Length: 124 NM

Exportar CSV

Powered by Drupal - Modified by Danger4k